Time;durP1;ratioP1;P1;durP2;ratioP2;P2;SDS_P1;SDS_P2;PMS_P1;PMS_P2;Temp;Humidity;BMP_temperature;BMP_pressure;BME280_temperature;BME280_humidity;BME280_pressure;Samples;Min_cycle;Max_cycle;Signal;HPM_P1;HPM_P2
2021/03/27 00:01:28;;;;;;;5.53;1.55;;;8.40;99.90;;;;;;5087245;28;20031;-88
2021/03/27 00:04:23;;;;;;;4.30;1.55;;;8.20;99.90;;;;;;5064892;28;20028;-88
2021/03/27 00:07:00;;;;;;;4.70;1.50;;;8.10;99.90;;;;;;5075830;28;20447;-87
2021/03/27 00:09:44;;;;;;;5.85;1.48;;;8.10;99.90;;;;;;5093214;28;20047;-88
2021/03/27 00:12:17;;;;;;;7.93;1.58;;;8.00;99.90;;;;;;5072107;28;20048;-89
2021/03/27 00:14:53;;;;;;;5.55;1.20;;;8.90;99.90;;;;;;5070297;28;20043;-88
2021/03/27 00:17:39;;;;;;;5.28;1.27;;;7.90;99.90;;;;;;5098437;28;20028;-88
2021/03/27 00:20:11;;;;;;;5.55;1.20;;;9.00;99.90;;;;;;5095754;28;20039;-87
2021/03/27 00:22:52;;;;;;;5.57;1.20;;;7.80;99.90;;;;;;5097916;28;20032;-77
2021/03/27 00:25:32;;;;;;;3.70;1.25;;;7.70;99.90;;;;;;5083159;28;20040;-77
2021/03/27 00:28:35;;;;;;;2.97;1.10;;;7.70;99.90;;;;;;5101580;28;20036;-78
2021/03/27 00:31:31;;;;;;;5.18;0.80;;;7.60;99.90;;;;;;5047235;28;20056;-77
2021/03/27 00:34:21;;;;;;;2.08;1.00;;;7.50;99.90;;;;;;5097736;28;20044;-77
2021/03/27 00:36:55;;;;;;;4.13;1.20;;;7.50;99.90;;;;;;5098286;28;20036;-77
2021/03/27 00:39:29;;;;;;;3.33;1.27;;;7.40;99.90;;;;;;5077001;28;20117;-77
2021/03/27 00:42:07;;;;;;;3.90;1.33;;;7.30;99.90;;;;;;5092843;28;20039;-77
2021/03/27 00:44:38;;;;;;;5.70;1.45;;;7.40;99.90;;;;;;5074689;28;20035;-77
2021/03/27 00:47:06;;;;;;;3.75;1.10;;;7.40;99.90;;;;;;5096646;28;20052;-77
2021/03/27 00:49:47;;;;;;;5.65;1.17;;;7.40;99.90;;;;;;5093845;28;20048;-77
2021/03/27 00:52:16;;;;;;;4.90;1.20;;;7.40;99.90;;;;;;5087369;28;20040;-77
2021/03/27 00:55:09;;;;;;;3.03;1.20;;;7.60;99.90;;;;;;5096364;28;20063;-77
2021/03/27 00:57:45;;;;;;;7.00;1.88;;;7.40;99.90;;;;;;5078129;28;20056;-77
2021/03/27 01:00:27;;;;;;;4.28;1.33;;;7.40;99.90;;;;;;5096303;28;20047;-77
2021/03/27 01:02:58;;;;;;;5.68;1.23;;;7.40;99.90;;;;;;5095956;28;20040;-77
2021/03/27 01:05:28;;;;;;;3.35;1.38;;;7.30;99.90;;;;;;5095952;28;20040;-77
2021/03/27 01:07:56;;;;;;;4.40;1.30;;;7.30;99.90;;;;;;5077979;28;20097;-77
2021/03/27 01:10:33;;;;;;;3.65;1.30;;;7.30;99.90;;;;;;5081950;28;20040;-77
2021/03/27 01:13:09;;;;;;;3.08;1.50;;;7.30;99.90;;;;;;5078143;28;20048;-77
2021/03/27 01:15:41;;;;;;;5.00;1.40;;;7.30;99.90;;;;;;5082709;28;20046;-77
2021/03/27 01:18:21;;;;;;;5.45;1.75;;;7.30;99.90;;;;;;5095475;28;20377;-77
2021/03/27 01:20:55;;;;;;;5.90;1.27;;;7.30;99.90;;;;;;5060696;28;20642;-77
2021/03/27 01:23:21;;;;;;;5.60;1.52;;;7.20;99.90;;;;;;5095495;28;20036;-77
2021/03/27 01:25:48;;;;;;;4.07;1.30;;;7.20;99.90;;;;;;5077534;28;20103;-77
2021/03/27 01:28:33;;;;;;;6.30;1.48;;;7.20;99.90;;;;;;5077474;28;20036;-78
2021/03/27 01:31:27;;;;;;;3.60;1.23;;;7.20;99.90;;;;;;5083089;28;20054;-77
2021/03/27 01:34:18;;;;;;;5.15;1.38;;;7.20;99.90;;;;;;5032189;28;20492;-77
2021/03/27 01:36:54;;;;;;;7.88;1.55;;;7.20;99.90;;;;;;5095356;28;20036;-77
2021/03/27 01:39:51;;;;;;;5.95;1.52;;;7.20;99.90;;;;;;5060579;28;20069;-77
2021/03/27 01:42:23;;;;;;;6.53;1.50;;;7.20;99.90;;;;;;5096027;28;20040;-88
2021/03/27 01:44:58;;;;;;;7.72;1.30;;;7.20;99.90;;;;;;5075588;28;20035;-88
2021/03/27 01:47:41;;;;;;;4.77;1.20;;;7.30;99.90;;;;;;5088938;28;20407;-88
2021/03/27 01:50:19;;;;;;;3.97;1.10;;;7.20;99.90;;;;;;5065464;28;20765;-88
2021/03/27 01:53:22;;;;;;;2.13;1.10;;;7.20;99.90;;;;;;5095637;28;20089;-88
2021/03/27 01:56:01;;;;;;;3.53;1.08;;;7.20;99.90;;;;;;5065264;28;20041;-88
2021/03/27 01:58:43;;;;;;;3.83;0.93;;;7.20;99.90;;;;;;5063934;28;20107;-87
2021/03/27 02:01:35;;;;;;;5.88;1.30;;;8.00;99.90;;;;;;5081151;28;20051;-88
2021/03/27 02:04:07;;;;;;;3.55;1.23;;;7.70;99.90;;;;;;5056804;28;20059;-87
2021/03/27 02:07:00;;;;;;;4.47;1.30;;;7.20;99.90;;;;;;5074396;28;20043;-88
2021/03/27 02:09:54;;;;;;;3.55;1.10;;;7.20;99.90;;;;;;5082677;28;20493;-88
2021/03/27 02:12:37;;;;;;;6.07;1.20;;;7.10;99.90;;;;;;5083583;28;20506;-72
2021/03/27 02:15:14;;;;;;;5.13;1.15;;;7.30;99.90;;;;;;5094498;28;20040;-72
2021/03/27 02:18:03;;;;;;;4.55;1.42;;;7.50;99.90;;;;;;5094824;28;20053;-79
2021/03/27 02:20:50;;;;;;;4.10;1.27;;;7.20;99.90;;;;;;5094537;28;20403;-79
2021/03/27 02:23:36;;;;;;;4.00;1.15;;;7.10;99.90;;;;;;5059757;28;20101;-79
2021/03/27 02:26:18;;;;;;;3.67;1.35;;;7.10;99.90;;;;;;5072464;28;20500;-79
2021/03/27 02:29:08;;;;;;;5.28;1.40;;;7.10;99.90;;;;;;5074144;28;20499;-80
2021/03/27 02:31:39;;;;;;;7.50;1.27;;;7.10;99.90;;;;;;5094379;28;20036;-73
2021/03/27 02:34:28;;;;;;;3.58;1.25;;;7.00;99.90;;;;;;5076084;28;20046;-79
2021/03/27 02:37:13;;;;;;;4.20;1.70;;;7.00;99.90;;;;;;5094298;28;20032;-79
2021/03/27 02:39:53;;;;;;;5.32;1.65;;;7.00;99.90;;;;;;5076154;28;20032;-79
2021/03/27 02:42:43;;;;;;;5.80;1.80;;;7.00;99.90;;;;;;5076378;28;20035;-79
2021/03/27 02:45:15;;;;;;;3.88;1.98;;;7.00;99.90;;;;;;5082780;28;20035;-80
2021/03/27 02:47:58;;;;;;;5.70;2.17;;;7.00;99.90;;;;;;5094336;28;20036;-80
2021/03/27 02:50:35;;;;;;;6.70;2.30;;;7.00;99.90;;;;;;5094007;28;20068;-79
2021/03/27 02:53:17;;;;;;;6.80;2.15;;;7.00;99.90;;;;;;5093882;28;20115;-79
2021/03/27 02:56:10;;;;;;;4.20;1.80;;;7.00;99.90;;;;;;5094166;28;20044;-79
2021/03/27 02:59:17;;;;;;;5.65;2.33;;;7.00;99.90;;;;;;5081105;28;20036;-79
2021/03/27 03:01:59;;;;;;;;;;;7.00;99.90;;;;;;5057346;28;20127;-79
2021/03/27 03:04:40;;;;;;;4.32;2.58;;;7.00;99.90;;;;;;5093783;28;19916;-79
2021/03/27 03:07:21;;;;;;;5.60;2.83;;;6.90;99.90;;;;;;5081030;28;20043;-79
2021/03/27 03:10:22;;;;;;;7.70;2.90;;;6.90;99.90;;;;;;5092921;28;20043;-73
2021/03/27 03:12:57;;;;;;;5.38;3.42;;;7.00;99.90;;;;;;5075459;28;20044;-73
2021/03/27 03:15:47;;;;;;;6.40;3.90;;;7.00;99.90;;;;;;5093427;28;20032;-79
2021/03/27 03:18:28;;;;;;;11.88;4.32;;;7.00;99.90;;;;;;5075830;28;20127;-80
2021/03/27 03:21:19;;;;;;;7.35;4.75;;;7.00;99.90;;;;;;5075624;28;20040;-80
2021/03/27 03:24:11;;;;;;;11.65;5.40;;;7.00;99.90;;;;;;5093330;28;20032;-80
2021/03/27 03:26:49;;;;;;;11.35;5.22;;;7.00;99.90;;;;;;5079883;28;20044;-74
2021/03/27 03:29:45;;;;;;;14.52;5.80;;;7.00;99.90;;;;;;5093370;28;20040;-73
2021/03/27 03:32:37;;;;;;;11.13;5.60;;;7.00;99.90;;;;;;5070771;28;20503;-73
2021/03/27 03:35:20;;;;;;;10.95;5.57;;;7.00;99.90;;;;;;5092640;28;20160;-73
2021/03/27 03:38:16;;;;;;;9.13;5.45;;;7.10;99.90;;;;;;5092857;28;20097;-73
2021/03/27 03:41:14;;;;;;;11.73;5.95;;;7.00;99.90;;;;;;5080516;28;20040;-73
2021/03/27 03:44:02;;;;;;;11.13;6.18;;;7.10;99.90;;;;;;5074897;28;20036;-74
2021/03/27 03:46:58;;;;;;;15.27;6.07;;;7.50;99.90;;;;;;5074558;28;20110;-73
2021/03/27 03:49:42;;;;;;;16.63;6.72;;;7.10;99.90;;;;;;5092517;28;20042;-73
2021/03/27 03:52:29;;;;;;;19.10;6.07;;;7.10;99.90;;;;;;5092888;28;20039;-73
2021/03/27 03:54:57;;;;;;;15.85;6.50;;;7.00;99.90;;;;;;5092610;28;20032;-73
2021/03/27 03:57:29;;;;;;;14.52;5.47;;;7.70;99.90;;;;;;5074594;28;20123;-73
2021/03/27 04:00:17;;;;;;;17.15;6.55;;;7.00;99.90;;;;;;5074569;28;20055;-73
2021/03/27 04:02:48;;;;;;;19.27;5.85;;;6.90;99.90;;;;;;5092689;28;20032;-73
2021/03/27 04:05:25;;;;;;;16.63;6.65;;;7.40;99.90;;;;;;5092681;28;20036;-73
2021/03/27 04:08:19;;;;;;;13.60;5.90;;;6.90;99.90;;;;;;5092565;28;20218;-73
2021/03/27 04:10:48;;;;;;;12.82;5.25;;;6.80;99.90;;;;;;5074151;28;20132;-79
2021/03/27 04:13:18;;;;;;;23.90;6.05;;;6.80;99.90;;;;;;5092790;28;20036;-79
2021/03/27 04:16:01;;;;;;;19.73;5.05;;;6.80;99.90;;;;;;5074471;28;20426;-80
2021/03/27 04:18:39;;;;;;;20.20;5.60;;;6.80;99.90;;;;;;5074883;28;20165;-80
2021/03/27 04:21:08;;;;;;;16.63;4.80;;;6.80;99.90;;;;;;5094851;28;20035;-80
2021/03/27 04:23:50;;;;;;;20.77;5.28;;;6.70;99.90;;;;;;5096632;28;20157;-79
2021/03/27 04:26:25;;;;;;;18.33;4.75;;;6.70;99.90;;;;;;5096868;28;20097;-80
2021/03/27 04:29:30;;;;;;;20.48;3.90;;;6.70;99.90;;;;;;5096711;28;20043;-80
2021/03/27 04:32:14;;;;;;;21.25;4.13;;;6.60;99.90;;;;;;5096479;28;20040;-80
2021/03/27 04:35:15;;;;;;;15.70;3.65;;;6.60;99.90;;;;;;5096506;28;20055;-80
2021/03/27 04:38:10;;;;;;;20.15;4.05;;;6.60;99.90;;;;;;5093532;28;20055;-80
2021/03/27 04:40:42;;;;;;;16.45;3.65;;;6.80;99.90;;;;;;5087024;28;20048;-80
2021/03/27 04:43:11;;;;;;;13.55;3.58;;;6.50;99.90;;;;;;5096426;28;20053;-79
2021/03/27 04:46:11;;;;;;;14.80;3.47;;;6.50;99.90;;;;;;5096132;28;20036;-80
2021/03/27 04:49:16;;;;;;;15.02;3.20;;;6.50;99.90;;;;;;5083070;28;20048;-80
2021/03/27 04:52:00;;;;;;;19.52;3.67;;;6.50;99.90;;;;;;5096512;28;20040;-79
2021/03/27 04:54:32;;;;;;;17.67;3.72;;;6.40;99.90;;;;;;5078261;28;20472;-79
2021/03/27 04:57:41;;;;;;;16.02;3.22;;;6.40;99.90;;;;;;5096381;28;20038;-79
2021/03/27 05:00:21;;;;;;;20.60;3.15;;;6.40;99.90;;;;;;5084766;28;20032;-80
2021/03/27 05:03:14;;;;;;;21.52;3.70;;;6.40;99.90;;;;;;5078166;28;20050;-79
2021/03/27 05:05:54;;;;;;;14.95;3.35;;;6.40;99.90;;;;;;5096333;28;20070;-79
2021/03/27 05:08:27;;;;;;;21.98;3.75;;;6.50;99.90;;;;;;5096283;28;20110;-79
2021/03/27 05:11:08;;;;;;;22.55;3.58;;;6.40;99.90;;;;;;5096209;28;20047;-80
2021/03/27 05:13:48;;;;;;;13.82;2.90;;;6.40;99.90;;;;;;5083207;28;20032;-80
2021/03/27 05:16:30;;;;;;;19.77;3.20;;;6.50;99.90;;;;;;5096052;28;20044;-80
2021/03/27 05:19:13;;;;;;;18.48;3.03;;;6.60;99.90;;;;;;5061332;28;20050;-79
2021/03/27 05:21:39;;;;;;;13.70;3.10;;;6.50;99.90;;;;;;5077377;28;20098;-73
2021/03/27 05:24:26;;;;;;;12.85;2.97;;;6.50;99.90;;;;;;5095651;28;20035;-72
2021/03/27 05:27:15;;;;;;;19.85;3.63;;;6.60;99.90;;;;;;5077551;28;20365;-73
2021/03/27 05:30:28;;;;;;;13.05;3.00;;;6.60;99.90;;;;;;5095697;28;20036;-73
2021/03/27 05:33:20;;;;;;;12.65;3.05;;;6.60;99.90;;;;;;5070023;28;20051;-73
2021/03/27 05:35:56;;;;;;;19.85;3.30;;;6.60;99.90;;;;;;5057265;28;20059;-73
2021/03/27 05:38:30;;;;;;;23.00;3.25;;;6.70;99.90;;;;;;5077181;28;20047;-73
2021/03/27 05:41:33;;;;;;;17.27;3.45;;;6.70;99.90;;;;;;5095335;28;20078;-73
2021/03/27 05:44:24;;;;;;;21.60;3.35;;;6.70;99.90;;;;;;5095118;28;20040;-73
2021/03/27 05:47:07;;;;;;;13.73;3.00;;;6.70;99.90;;;;;;5095201;28;20035;-73
2021/03/27 05:49:45;;;;;;;18.10;3.35;;;6.70;99.90;;;;;;5095228;28;20032;-80
2021/03/27 05:52:21;;;;;;;14.18;3.13;;;6.80;99.90;;;;;;5077169;28;20050;-78
2021/03/27 05:55:14;;;;;;;11.88;3.13;;;6.80;99.90;;;;;;5077048;28;20036;-73
2021/03/27 05:58:01;;;;;;;14.90;3.35;;;6.70;99.90;;;;;;5076738;28;20609;-73
2021/03/27 06:00:51;;;;;;;10.60;2.83;;;6.60;99.90;;;;;;5094972;28;20111;-73
2021/03/27 06:03:48;;;;;;;16.63;3.25;;;6.60;99.90;;;;;;5081354;28;20384;-74
2021/03/27 06:06:35;;;;;;;13.13;2.70;;;6.50;99.90;;;;;;5076799;28;20109;-73
2021/03/27 06:09:19;;;;;;;15.93;3.45;;;6.50;99.90;;;;;;5076702;28;20042;-73
2021/03/27 06:12:04;;;;;;;15.77;3.30;;;6.50;99.90;;;;;;5081927;28;20036;-80
2021/03/27 06:14:41;;;;;;;13.60;2.85;;;6.50;99.90;;;;;;5095490;28;20426;-79
2021/03/27 06:17:44;;;;;;;16.38;3.00;;;6.50;99.90;;;;;;5095701;28;20050;-79
2021/03/27 06:20:44;;;;;;;9.27;2.92;;;6.50;99.90;;;;;;5095944;28;20032;-73
2021/03/27 06:23:36;;;;;;;9.63;2.75;;;6.40;99.90;;;;;;5096102;28;20399;-79
2021/03/27 06:26:17;;;;;;;8.88;2.67;;;6.40;99.90;;;;;;5096230;28;20066;-79
2021/03/27 06:29:16;;;;;;;11.90;2.65;;;6.30;99.90;;;;;;5095921;28;20028;-79
2021/03/27 06:31:53;;;;;;;8.82;2.40;;;6.20;99.90;;;;;;5077335;28;20119;-73
2021/03/27 06:34:41;;;;;;;8.02;2.42;;;6.20;99.90;;;;;;5077524;28;20059;-79
2021/03/27 06:37:31;;;;;;;13.48;2.83;;;6.10;99.90;;;;;;5095156;28;20036;-74
2021/03/27 06:40:20;;;;;;;13.85;2.40;;;6.10;99.90;;;;;;5077678;28;20060;-80
2021/03/27 06:42:52;;;;;;;11.27;2.63;;;6.00;99.90;;;;;;5094930;28;20063;-80
2021/03/27 06:45:40;;;;;;;12.38;2.83;;;6.00;99.90;;;;;;5095518;28;20040;-73
2021/03/27 06:48:35;;;;;;;11.98;2.95;;;6.00;99.90;;;;;;5082990;28;20054;-73
2021/03/27 06:51:16;;;;;;;17.45;2.90;;;5.90;99.90;;;;;;5076966;28;20047;-79
2021/03/27 06:53:48;;;;;;;14.68;2.55;;;5.90;99.90;;;;;;5077120;28;20090;-73
2021/03/27 06:56:13;;;;;;;15.25;2.65;;;5.90;99.90;;;;;;5094840;28;20042;-73
2021/03/27 06:58:58;;;;;;;10.45;2.42;;;5.90;99.90;;;;;;5094865;28;20107;-73
2021/03/27 07:01:48;;;;;;;13.40;2.78;;;5.90;99.90;;;;;;5094611;28;20062;-73
2021/03/27 07:05:00;;;;;;;17.88;2.90;;;5.90;99.90;;;;;;5059205;28;20097;-73
2021/03/27 07:07:31;;;;;;;15.95;3.03;;;5.90;99.90;;;;;;5026041;28;20049;-73
2021/03/27 07:10:13;;;;;;;11.77;2.90;;;6.00;99.90;;;;;;5092052;28;20058;-73
2021/03/27 07:13:23;;;;;;;12.57;2.47;;;6.00;99.90;;;;;;5093571;28;20392;-74
2021/03/27 07:15:54;;;;;;;13.02;3.05;;;6.10;99.90;;;;;;5085118;28;20051;-73
2021/03/27 07:19:11;;;;;;;18.15;3.28;;;6.20;99.90;;;;;;5093396;28;20043;-73
2021/03/27 07:21:51;;;;;;;;;;;6.20;99.90;;;;;;5075708;28;20043;-73
2021/03/27 07:24:39;;;;;;;18.65;2.97;;;6.20;99.90;;;;;;5075509;28;19923;-74
2021/03/27 07:27:26;;;;;;;14.65;2.58;;;6.30;99.90;;;;;;5093270;28;20085;-73
2021/03/27 07:30:13;;;;;;;14.27;3.05;;;6.40;99.90;;;;;;5091492;28;20032;-73
2021/03/27 07:32:51;;;;;;;23.45;3.30;;;6.30;99.90;;;;;;5083469;28;20046;-80
2021/03/27 07:35:39;;;;;;;17.92;3.00;;;6.30;99.90;;;;;;5071708;28;20119;-80
2021/03/27 07:38:18;;;;;;;20.33;3.08;;;6.30;99.90;;;;;;5073212;28;20082;-80
2021/03/27 07:41:15;;;;;;;21.52;3.47;;;6.30;99.90;;;;;;5073065;28;20536;-80
2021/03/27 07:43:53;;;;;;;21.67;3.65;;;6.30;99.90;;;;;;5071682;28;20044;-79
2021/03/27 07:46:29;;;;;;;17.52;2.92;;;6.40;99.90;;;;;;5058459;28;20047;-74
2021/03/27 07:48:55;;;;;;;18.10;3.17;;;6.40;99.90;;;;;;5072544;28;20043;-73
2021/03/27 07:51:58;;;;;;;21.63;3.78;;;6.50;99.90;;;;;;5072644;28;20044;-73
2021/03/27 07:54:44;;;;;;;25.08;4.07;;;6.60;99.90;;;;;;5072463;28;20036;-73
2021/03/27 07:57:48;;;;;;;25.13;4.35;;;6.60;99.90;;;;;;5072687;28;20100;-73
2021/03/27 08:00:47;;;;;;;25.17;4.18;;;6.70;99.90;;;;;;5060886;28;20036;-73
2021/03/27 08:03:40;;;;;;;18.77;3.85;;;6.80;99.90;;;;;;5058556;28;20033;-73
2021/03/27 08:06:29;;;;;;;18.33;3.83;;;6.80;99.70;;;;;;5071334;28;20039;-72
2021/03/27 08:09:00;;;;;;;23.05;4.78;;;6.80;99.90;;;;;;5071382;28;20055;-73
2021/03/27 08:11:52;;;;;;;20.73;3.78;;;6.90;99.90;;;;;;5072272;28;20036;-73
2021/03/27 08:14:42;;;;;;;28.05;4.32;;;6.90;99.90;;;;;;5044947;28;20052;-73
2021/03/27 08:17:25;;;;;;;25.10;4.50;;;6.90;99.90;;;;;;5060919;28;20037;-73
2021/03/27 08:20:21;;;;;;;24.85;3.97;;;6.90;99.40;;;;;;5072293;28;20145;-73
2021/03/27 08:23:24;;;;;;;23.95;4.07;;;6.90;99.30;;;;;;5072396;28;20500;-73
2021/03/27 08:26:16;;;;;;;20.17;3.17;;;7.00;99.30;;;;;;5062438;28;20060;-72
2021/03/27 08:28:56;;;;;;;20.05;3.63;;;7.00;97.60;;;;;;5054972;28;20395;-73
2021/03/27 08:31:49;;;;;;;19.77;3.85;;;7.30;97.40;;;;;;5071194;28;20052;-73
2021/03/27 08:34:52;;;;;;;22.63;3.80;;;7.10;96.40;;;;;;5071014;28;20049;-73
2021/03/27 08:37:46;;;;;;;25.90;3.55;;;7.00;95.90;;;;;;5058652;28;20055;-74
2021/03/27 08:40:45;;;;;;;20.90;3.75;;;7.00;96.10;;;;;;5053580;28;20084;-74
2021/03/27 08:43:14;;;;;;;23.70;3.72;;;7.10;95.60;;;;;;5072058;28;20025;-73
2021/03/27 08:46:15;;;;;;;19.13;3.78;;;7.00;94.80;;;;;;5071970;28;20053;-73
2021/03/27 08:49:18;;;;;;;21.40;3.13;;;7.00;94.30;;;;;;5070933;28;20033;-73
2021/03/27 08:52:21;;;;;;;29.15;4.45;;;7.00;94.90;;;;;;5061481;28;20081;-73
2021/03/27 08:55:05;;;;;;;18.35;2.97;;;6.90;96.00;;;;;;5058563;28;20025;-73
2021/03/27 08:57:37;;;;;;;13.32;2.63;;;6.70;96.60;;;;;;5071970;28;20404;-73
2021/03/27 09:00:12;;;;;;;14.00;2.65;;;6.60;96.80;;;;;;5072016;28;20033;-73
2021/03/27 09:06:22;;;;;;;;;;;6.20;97.60;;;;;;5017510;28;20082;-73
2021/03/27 09:09:21;;;;;;;12.13;2.40;;;6.20;97.80;;;;;;5073760;28;19923;-73
2021/03/27 09:12:13;;;;;;;16.73;2.63;;;6.10;97.90;;;;;;5072629;28;20124;-73
2021/03/27 09:14:54;;;;;;;18.35;2.95;;;6.30;98.10;;;;;;5073696;28;20060;-73
2021/03/27 09:17:48;;;;;;;20.20;3.22;;;6.30;97.60;;;;;;5074602;28;20029;-73
2021/03/27 09:20:40;;;;;;;12.10;2.53;;;6.40;98.00;;;;;;5066814;28;20491;-76
2021/03/27 09:23:12;;;;;;;21.48;3.58;;;6.60;97.30;;;;;;5072259;28;20032;-76
2021/03/27 09:26:06;;;;;;;20.30;2.95;;;6.80;96.50;;;;;;5074395;28;20496;-77
2021/03/27 09:29:18;;;;;;;12.75;2.90;;;7.00;96.30;;;;;;5073386;28;20029;-77
2021/03/27 09:32:17;;;;;;;19.52;3.75;;;7.10;95.40;;;;;;5007560;28;20406;-80
2021/03/27 09:35:11;;;;;;;16.90;2.95;;;7.00;94.40;;;;;;5052330;28;20103;-82
2021/03/27 09:37:49;;;;;;;17.15;3.55;;;6.90;94.70;;;;;;5069769;28;20469;-82
2021/03/27 09:40:52;;;;;;;20.13;3.22;;;7.00;94.90;;;;;;5072777;28;20356;-81
2021/03/27 09:43:39;;;;;;;15.02;3.45;;;6.70;95.80;;;;;;5079026;28;20052;-79
2021/03/27 09:46:26;;;;;;;21.20;3.17;;;6.60;96.40;;;;;;5073238;28;20037;-85
2021/03/27 09:49:13;;;;;;;23.25;3.85;;;6.60;95.70;;;;;;5073324;28;20094;-88
2021/03/27 09:52:03;;;;;;;17.80;4.00;;;6.60;96.30;;;;;;5073090;28;20491;-86
2021/03/27 09:54:41;;;;;;;19.90;3.40;;;6.60;95.80;;;;;;5068531;28;20024;-78
2021/03/27 09:57:32;;;;;;;19.70;3.95;;;6.70;95.30;;;;;;5070969;28;20575;-85
2021/03/27 10:00:40;;;;;;;19.67;2.92;;;6.70;95.70;;;;;;5068005;28;20036;-77
2021/03/27 10:03:29;;;;;;;21.50;3.47;;;6.90;95.20;;;;;;5038609;28;20055;-82
2021/03/27 10:06:29;;;;;;;18.33;3.42;;;6.90;94.30;;;;;;5075043;28;20044;-90
2021/03/27 10:09:11;;;;;;;15.77;3.00;;;6.80;94.50;;;;;;5045018;28;20132;-80
2021/03/27 10:11:56;;;;;;;16.60;3.40;;;7.30;93.50;;;;;;5063849;28;20040;-78
2021/03/27 10:14:25;;;;;;;23.13;3.33;;;7.40;92.20;;;;;;5074232;28;20048;-75
2021/03/27 10:17:00;;;;;;;21.67;3.60;;;7.50;93.00;;;;;;5062425;28;20060;-75
2021/03/27 10:19:31;;;;;;;19.20;3.70;;;7.40;91.90;;;;;;5072901;28;20036;-75
2021/03/27 10:22:29;;;;;;;17.73;3.28;;;7.60;92.00;;;;;;5059426;28;20040;-75
2021/03/27 10:25:20;;;;;;;19.15;3.22;;;7.10;94.10;;;;;;5061129;28;20443;-75
2021/03/27 10:28:28;;;;;;;22.02;3.75;;;7.00;95.10;;;;;;5057979;28;20052;-76
2021/03/27 10:31:01;;;;;;;15.13;3.05;;;6.90;94.90;;;;;;5066388;28;20432;-75
2021/03/27 10:34:04;;;;;;;18.27;3.40;;;7.10;94.50;;;;;;5073607;28;20384;-75
2021/03/27 10:36:43;;;;;;;18.33;3.10;;;6.90;93.90;;;;;;5072871;28;20044;-75
2021/03/27 10:39:32;;;;;;;13.43;2.38;;;7.00;93.80;;;;;;5067884;28;20036;-75
2021/03/27 10:42:28;;;;;;;16.25;3.10;;;7.00;90.70;;;;;;5073812;28;20480;-75
2021/03/27 10:45:08;;;;;;;12.60;2.97;;;7.40;90.90;;;;;;5072858;28;20037;-75
2021/03/27 10:47:42;;;;;;;28.88;3.22;;;7.00;91.50;;;;;;5074610;28;20040;-81
2021/03/27 10:50:29;;;;;;;19.98;3.30;;;7.00;92.20;;;;;;5075009;28;20130;-80
2021/03/27 10:53:14;;;;;;;17.17;3.20;;;7.10;92.50;;;;;;5069959;28;20092;-81
2021/03/27 10:56:10;;;;;;;19.73;3.13;;;7.20;91.90;;;;;;5069379;28;20063;-82
2021/03/27 10:58:45;;;;;;;;;;;7.20;92.80;;;;;;5073698;28;20040;-75
2021/03/27 11:01:39;;;;;;;19.48;3.67;;;7.20;93.20;;;;;;5058405;28;19966;-75
2021/03/27 11:04:30;;;;;;;17.02;3.03;;;7.20;93.00;;;;;;5074601;28;20473;-82
2021/03/27 11:07:17;;;;;;;19.02;3.60;;;7.20;93.50;;;;;;5064869;28;20090;-75
2021/03/27 11:10:19;;;;;;;18.00;3.40;;;7.10;92.80;;;;;;5073340;28;20063;-75
2021/03/27 11:13:17;;;;;;;16.73;3.17;;;7.10;93.10;;;;;;5073200;28;20036;-75
2021/03/27 11:16:13;;;;;;;17.70;2.50;;;7.10;92.60;;;;;;5068666;28;20119;-75
2021/03/27 11:18:50;;;;;;;19.00;3.35;;;7.10;92.90;;;;;;5015104;28;20053;-75
2021/03/27 11:21:43;;;;;;;23.50;4.00;;;7.20;93.40;;;;;;5071588;28;20071;-75
2021/03/27 11:24:36;;;;;;;15.95;3.05;;;7.20;93.60;;;;;;5071741;28;20040;-74
2021/03/27 11:27:50;;;;;;;14.55;3.28;;;6.90;94.70;;;;;;5057913;28;20515;-75
2021/03/27 11:30:37;;;;;;;8.25;2.30;;;6.70;95.90;;;;;;5071400;28;20098;-75
2021/03/27 11:33:22;;;;;;;12.45;2.55;;;6.40;94.60;;;;;;5070993;28;20391;-75
2021/03/27 11:36:23;;;;;;;11.77;2.47;;;6.80;95.70;;;;;;5067142;28;20052;-74
2021/03/27 11:39:04;;;;;;;17.90;2.65;;;6.50;95.40;;;;;;5040663;28;20044;-75
2021/03/27 11:41:57;;;;;;;11.98;2.45;;;6.50;94.60;;;;;;5069584;28;20442;-75
2021/03/27 11:44:45;;;;;;;13.18;2.58;;;6.60;94.90;;;;;;5072439;28;20055;-75
2021/03/27 11:47:31;;;;;;;8.40;1.65;;;6.40;95.70;;;;;;5071233;28;20459;-76
2021/03/27 11:50:03;;;;;;;9.05;1.73;;;6.00;98.00;;;;;;5061232;28;20112;-76
2021/03/27 11:52:40;;;;;;;9.55;1.95;;;5.80;98.70;;;;;;5072482;28;20036;-76
2021/03/27 11:55:33;;;;;;;12.43;2.10;;;5.70;99.40;;;;;;5071188;28;20103;-76
2021/03/27 11:58:03;;;;;;;7.20;1.60;;;5.60;99.90;;;;;;5033496;28;20052;-76
2021/03/27 12:01:02;;;;;;;12.18;2.28;;;5.70;99.70;;;;;;5071365;28;20044;-76
2021/03/27 12:04:05;;;;;;;9.18;1.88;;;5.80;99.90;;;;;;5067005;28;20101;-76
2021/03/27 12:06:52;;;;;;;9.13;1.83;;;5.90;99.80;;;;;;5071057;28;20055;-75
2021/03/27 12:09:26;;;;;;;7.07;1.40;;;6.00;99.30;;;;;;5072319;28;20111;-75
2021/03/27 12:11:55;;;;;;;3.17;1.15;;;6.00;99.00;;;;;;5059665;28;20322;-76
2021/03/27 12:14:46;;;;;;;6.15;1.80;;;6.00;98.70;;;;;;5069284;28;20070;-75
2021/03/27 12:17:22;;;;;;;5.35;1.27;;;6.00;98.90;;;;;;5061349;28;20070;-76
2021/03/27 12:20:03;;;;;;;4.72;1.35;;;6.00;99.10;;;;;;5072825;28;20032;-81
2021/03/27 12:22:44;;;;;;;6.00;2.53;;;6.30;99.80;;;;;;5071722;28;20047;-82
2021/03/27 12:25:37;;;;;;;7.13;1.92;;;6.00;99.90;;;;;;5071869;28;20058;-81
2021/03/27 12:28:35;;;;;;;7.90;2.15;;;6.00;99.90;;;;;;5073751;28;20110;-81
2021/03/27 12:31:52;;;;;;;11.65;2.42;;;6.30;99.90;;;;;;5034312;28;20103;-82
2021/03/27 12:34:36;;;;;;;14.18;2.90;;;6.30;99.90;;;;;;5039050;28;20064;-76
2021/03/27 12:37:20;;;;;;;13.23;2.38;;;6.40;99.90;;;;;;5072052;28;20124;-76
2021/03/27 12:40:12;;;;;;;14.30;2.67;;;6.40;99.90;;;;;;5062557;28;20037;-76
2021/03/27 12:42:51;;;;;;;13.40;2.58;;;6.40;99.90;;;;;;5070292;28;20036;-76
2021/03/27 12:45:29;;;;;;;19.38;3.72;;;6.20;99.90;;;;;;5062952;28;20037;-76
2021/03/27 12:48:08;;;;;;;13.70;2.83;;;6.50;99.90;;;;;;5070527;28;20036;-76
2021/03/27 12:50:53;;;;;;;19.45;3.30;;;6.50;99.90;;;;;;5068975;28;20061;-82
2021/03/27 12:53:33;;;;;;;15.15;3.70;;;6.40;99.90;;;;;;5062077;28;20535;-77
2021/03/27 12:56:27;;;;;;;12.50;2.60;;;6.40;99.90;;;;;;5065538;28;20036;-77
2021/03/27 12:59:22;;;;;;;21.63;3.13;;;6.40;99.90;;;;;;5072751;28;20037;-78
2021/03/27 13:02:13;;;;;;;22.80;3.58;;;6.40;99.90;;;;;;5070855;28;20033;-83
2021/03/27 13:04:59;;;;;;;27.08;4.22;;;6.50;99.90;;;;;;5070776;28;20039;-77
2021/03/27 13:07:47;;;;;;;23.88;3.65;;;6.60;99.90;;;;;;5068999;28;20033;-77
2021/03/27 13:10:32;;;;;;;16.33;3.75;;;6.90;99.90;;;;;;5060983;28;20033;-77
2021/03/27 13:13:11;;;;;;;26.45;4.45;;;6.90;99.90;;;;;;5065305;28;20393;-81
2021/03/27 13:15:44;;;;;;;21.70;3.85;;;7.00;99.90;;;;;;5070043;28;20461;-81
2021/03/27 13:18:33;;;;;;;20.83;4.30;;;7.00;99.90;;;;;;5062121;28;20053;-82
2021/03/27 13:21:09;;;;;;;23.73;4.13;;;7.00;99.90;;;;;;5073074;28;20044;-77
2021/03/27 13:24:14;;;;;;;21.02;3.72;;;7.00;99.90;;;;;;5058350;28;20040;-77
2021/03/27 13:26:44;;;;;;;27.60;4.05;;;7.10;99.30;;;;;;5060581;28;20488;-77
2021/03/27 13:29:37;;;;;;;23.90;3.30;;;7.20;99.30;;;;;;5071913;28;20500;-76
2021/03/27 13:32:22;;;;;;;20.08;3.40;;;7.20;97.80;;;;;;5070839;28;20033;-76
2021/03/27 13:35:06;;;;;;;25.77;3.58;;;7.20;98.60;;;;;;5050561;28;20199;-76
2021/03/27 13:37:56;;;;;;;21.13;3.95;;;7.20;98.20;;;;;;5066365;28;20120;-76
2021/03/27 13:40:35;;;;;;;24.90;4.00;;;7.20;98.00;;;;;;5068345;28;20058;-76
2021/03/27 13:43:14;;;;;;;29.92;4.15;;;7.30;98.30;;;;;;5059621;28;20048;-76
2021/03/27 13:46:19;;;;;;;23.00;3.83;;;7.30;97.90;;;;;;5048148;28;20482;-81
2021/03/27 13:48:53;;;;;;;14.07;2.95;;;7.30;97.80;;;;;;5061149;28;20032;-75
2021/03/27 13:51:24;;;;;;;14.10;2.90;;;7.30;98.30;;;;;;5066649;28;20040;-76
2021/03/27 13:54:27;;;;;;;13.10;2.60;;;7.30;98.40;;;;;;5062192;28;20045;-77
2021/03/27 13:56:59;;;;;;;14.15;2.80;;;7.10;98.10;;;;;;5062593;28;20083;-76
2021/03/27 14:00:03;;;;;;;13.02;2.40;;;7.60;98.10;;;;;;5059348;28;20048;-76
2021/03/27 14:03:04;;;;;;;9.32;2.10;;;7.20;98.00;;;;;;5056545;28;20059;-76
2021/03/27 14:05:44;;;;;;;13.07;2.42;;;7.20;97.70;;;;;;5068397;28;20033;-75
2021/03/27 14:08:50;;;;;;;12.20;2.70;;;7.20;97.80;;;;;;5071153;28;20059;-75
2021/03/27 14:11:28;;;;;;;15.65;2.45;;;7.30;97.70;;;;;;5050896;28;22611;-75
2021/03/27 14:14:08;;;;;;;14.63;3.20;;;7.30;97.00;;;;;;5061636;28;20725;-75
2021/03/27 14:17:07;;;;;;;16.17;3.05;;;7.40;97.30;;;;;;5070945;28;20035;-75
2021/03/27 14:19:54;;;;;;;14.88;2.92;;;7.40;97.20;;;;;;5060898;28;20067;-75
2021/03/27 14:22:38;;;;;;;18.40;3.30;;;7.60;97.30;;;;;;5036201;28;20131;-75
2021/03/27 14:25:40;;;;;;;22.27;3.08;;;7.80;97.50;;;;;;5068542;28;20033;-76
2021/03/27 14:28:18;;;;;;;17.80;3.15;;;8.00;96.40;;;;;;5042020;28;20146;-75
2021/03/27 14:31:11;;;;;;;15.98;3.28;;;7.90;96.50;;;;;;5057954;28;20048;-75